Time;durP1;ratioP1;P1;durP2;ratioP2;P2;SDS_P1;SDS_P2;PMS_P1;PMS_P2;Temp;Humidity;BMP_temperature;BMP_pressure;BME280_temperature;BME280_humidity;BME280_pressure;Samples;Min_cycle;Max_cycle;Signal;HPM_P1;HPM_P2
2023/04/12 00:00:34;;;;;;;10.30;3.25;;;6.90;99.90;;;;;;5092714;28;20135;-51
2023/04/12 00:03:04;;;;;;;8.80;2.88;;;6.90;99.90;;;;;;5092620;28;20403;-51
2023/04/12 00:05:30;;;;;;;8.32;2.13;;;;;;;;;;5074570;28;20039;-53
2023/04/12 00:07:57;;;;;;;16.40;2.70;;;6.80;99.90;;;;;;5093079;28;20040;-50
2023/04/12 00:10:23;;;;;;;7.82;1.98;;;;;;;;;;5092648;28;20047;-53
2023/04/12 00:12:49;;;;;;;9.07;2.15;;;7.00;99.90;;;;;;5093780;27;20039;-53
2023/04/12 00:15:14;;;;;;;7.88;2.42;;;6.90;99.90;;;;;;5095974;28;20050;-51
2023/04/12 00:17:40;;;;;;;12.50;2.90;;;6.90;99.90;;;;;;5079189;28;20151;-52
2023/04/12 00:20:11;;;;;;;14.18;2.85;;;7.10;99.90;;;;;;5095802;27;25018;-49
2023/04/12 00:22:40;;;;;;;14.30;2.90;;;7.10;99.90;;;;;;5077600;27;21406;-50
2023/04/12 00:25:06;;;;;;;10.20;2.28;;;7.00;99.90;;;;;;5095801;27;20035;-51
2023/04/12 00:27:32;;;;;;;7.88;2.28;;;;;;;;;;5077521;27;20089;-52
2023/04/12 00:29:58;;;;;;;8.00;1.95;;;7.20;99.90;;;;;;5077010;27;20042;-55
2023/04/12 00:32:24;;;;;;;10.48;2.30;;;7.30;99.90;;;;;;5095316;27;20067;-50
2023/04/12 00:34:50;;;;;;;9.32;2.10;;;7.20;99.90;;;;;;5095184;27;20472;-52
2023/04/12 00:37:16;;;;;;;12.73;3.17;;;7.20;99.90;;;;;;5095990;27;20047;-49
2023/04/12 00:39:41;;;;;;;9.93;2.00;;;7.30;99.90;;;;;;5077233;28;20032;-51
2023/04/12 00:42:07;;;;;;;12.52;2.38;;;7.40;99.90;;;;;;5095831;27;20035;-48
2023/04/12 00:44:34;;;;;;;7.97;2.30;;;7.40;99.90;;;;;;5094861;28;20040;-52
2023/04/12 00:47:02;;;;;;;11.50;3.10;;;7.30;99.90;;;;;;5094439;27;20496;-50
2023/04/12 00:49:29;;;;;;;11.68;2.35;;;7.40;99.90;;;;;;5095609;27;20486;-50
2023/04/12 00:52:05;;;;;;;9.23;2.20;;;7.50;99.90;;;;;;5077161;28;20081;-50
2023/04/12 00:54:33;;;;;;;10.77;2.50;;;7.50;99.90;;;;;;5076427;28;20438;-48
2023/04/12 00:57:02;;;;;;;10.85;1.98;;;7.40;99.90;;;;;;5076805;28;20615;-51
2023/04/12 00:59:28;;;;;;;12.05;2.70;;;7.50;99.90;;;;;;5095001;27;20670;-50
2023/04/12 01:01:55;;;;;;;8.20;2.10;;;7.50;99.90;;;;;;5096233;27;20035;-51
2023/04/12 01:04:21;;;;;;;10.68;2.53;;;7.50;99.90;;;;;;5094761;27;20031;-49
2023/04/12 01:07:02;;;;;;;11.57;2.50;;;7.50;99.90;;;;;;5095778;27;20048;-50
2023/04/12 01:10:00;;;;;;;19.13;3.65;;;7.50;99.90;;;;;;5096806;27;20064;-51
2023/04/12 01:12:45;;;;;;;13.95;3.65;;;7.50;99.90;;;;;;5094765;27;20410;-52
2023/04/12 01:15:14;;;;;;;9.00;2.50;;;7.50;99.90;;;;;;5095896;27;20050;-50
2023/04/12 01:17:58;;;;;;;10.70;2.65;;;7.60;99.90;;;;;;5095071;28;20051;-53
2023/04/12 01:20:28;;;;;;;12.35;3.03;;;7.40;99.90;;;;;;5078984;28;20541;-49
2023/04/12 01:23:17;;;;;;;12.60;2.90;;;7.40;99.90;;;;;;5096131;27;20043;-51
2023/04/12 01:25:46;;;;;;;8.43;2.53;;;7.50;99.90;;;;;;5094931;27;20052;-53
2023/04/12 01:28:14;;;;;;;10.30;2.53;;;7.60;99.90;;;;;;5094801;28;20119;-51
2023/04/12 01:30:42;;;;;;;11.23;2.60;;;7.60;99.90;;;;;;5094995;27;20039;-52
2023/04/12 01:33:10;;;;;;;6.93;2.20;;;7.40;99.90;;;;;;5094308;27;20373;-54
2023/04/12 01:35:38;;;;;;;12.02;2.60;;;7.30;99.90;;;;;;5094801;27;20139;-54
2023/04/12 01:38:05;;;;;;;12.52;2.70;;;7.90;99.90;;;;;;5094911;27;20123;-52
2023/04/12 01:40:31;;;;;;;8.75;2.20;;;7.50;99.90;;;;;;5094880;27;20050;-52
2023/04/12 01:43:23;;;;;;;12.25;2.58;;;7.50;99.90;;;;;;5093600;27;20031;-52
2023/04/12 01:45:49;;;;;;;9.68;2.45;;;7.60;99.90;;;;;;5089161;27;20527;-54
2023/04/12 01:48:15;;;;;;;15.95;3.25;;;7.40;99.90;;;;;;5093319;27;20048;-52
2023/04/12 01:51:03;;;;;;;14.07;2.92;;;7.70;99.90;;;;;;5095862;27;20130;-53
2023/04/12 01:53:52;;;;;;;15.43;3.05;;;7.60;99.90;;;;;;5076400;28;20044;-54
2023/04/12 01:56:19;;;;;;;13.27;2.33;;;7.60;99.90;;;;;;5094702;27;20123;-53
2023/04/12 01:58:47;;;;;;;11.82;2.60;;;7.70;99.90;;;;;;5095049;28;20292;-53
2023/04/12 02:01:15;;;;;;;10.07;2.40;;;7.70;99.90;;;;;;5092731;27;20407;-53
2023/04/12 02:03:41;;;;;;;9.52;2.42;;;7.60;99.90;;;;;;5093264;27;20511;-53
2023/04/12 02:06:08;;;;;;;8.68;2.50;;;7.60;99.90;;;;;;5093533;27;20051;-54
2023/04/12 02:08:34;;;;;;;7.90;2.47;;;7.40;99.90;;;;;;5095461;27;20078;-54
2023/04/12 02:11:06;;;;;;;10.18;2.40;;;7.70;99.90;;;;;;5093560;27;20560;-52
2023/04/12 02:13:32;;;;;;;10.82;2.15;;;7.70;99.90;;;;;;5093064;27;20078;-54
2023/04/12 02:15:58;;;;;;;11.10;2.45;;;7.70;99.90;;;;;;5093212;27;20126;-53
2023/04/12 02:18:24;;;;;;;12.00;2.28;;;7.70;99.90;;;;;;5093298;27;20503;-53
2023/04/12 02:20:49;;;;;;;12.65;2.38;;;7.70;99.90;;;;;;5095783;27;20128;-53
2023/04/12 02:23:15;;;;;;;6.80;1.80;;;7.60;99.90;;;;;;5075326;27;20107;-53
2023/04/12 02:25:41;;;;;;;8.85;2.45;;;7.70;99.90;;;;;;5091848;28;20434;-52
2023/04/12 02:28:07;;;;;;;8.88;2.15;;;7.60;99.90;;;;;;5093988;27;20044;-53
2023/04/12 02:30:33;;;;;;;10.45;2.00;;;7.70;99.90;;;;;;5094171;27;20517;-52
2023/04/12 02:32:59;;;;;;;8.95;1.88;;;7.70;99.90;;;;;;5094407;27;20051;-54
2023/04/12 02:35:25;;;;;;;11.52;1.85;;;7.70;99.90;;;;;;5093921;27;20043;-52
2023/04/12 02:37:50;;;;;;;8.95;2.00;;;7.90;99.90;;;;;;5094914;27;20050;-53
2023/04/12 02:40:16;;;;;;;10.77;2.38;;;7.70;99.90;;;;;;5094533;27;20400;-53
2023/04/12 02:42:43;;;;;;;7.95;2.25;;;9.20;99.90;;;;;;5093509;28;20043;-52
2023/04/12 02:45:09;;;;;;;9.88;2.00;;;9.20;99.90;;;;;;5094402;28;20673;-55
2023/04/12 02:47:36;;;;;;;9.07;2.03;;;7.50;99.90;;;;;;5095659;27;20131;-53
2023/04/12 02:50:03;;;;;;;13.95;3.42;;;7.70;99.90;;;;;;5094321;27;20086;-51
2023/04/12 02:52:28;;;;;;;11.85;3.45;;;7.60;99.90;;;;;;5094119;27;20043;-53
2023/04/12 02:54:55;;;;;;;12.80;2.42;;;9.00;99.90;;;;;;5094192;27;20096;-54
2023/04/12 02:57:22;;;;;;;5.50;1.80;;;7.80;99.90;;;;;;5093845;28;20491;-52
2023/04/12 02:59:52;;;;;;;7.68;1.63;;;7.60;99.90;;;;;;5093885;27;20525;-53
2023/04/12 03:02:18;;;;;;;10.35;2.03;;;6.60;99.90;;;;;;5093590;27;20051;-54
2023/04/12 03:04:45;;;;;;;9.15;2.50;;;7.70;99.90;;;;;;5092929;28;20408;-52
2023/04/12 03:07:12;;;;;;;7.25;1.80;;;8.80;99.90;;;;;;5073876;28;20403;-51
2023/04/12 03:09:41;;;;;;;12.05;2.13;;;7.70;99.90;;;;;;5094546;28;20039;-55
2023/04/12 03:12:07;;;;;;;9.68;1.85;;;7.50;99.90;;;;;;5094634;28;20047;-53
2023/04/12 03:14:33;;;;;;;7.78;1.73;;;7.70;99.90;;;;;;5092668;28;20044;-52
2023/04/12 03:16:59;;;;;;;9.43;2.70;;;7.70;99.90;;;;;;5092230;28;20057;-53
2023/04/12 03:19:24;;;;;;;11.50;2.28;;;7.70;99.90;;;;;;5093705;27;20032;-51
2023/04/12 03:21:50;;;;;;;8.70;2.40;;;7.80;99.90;;;;;;5075335;28;20036;-53
2023/04/12 03:24:16;;;;;;;6.00;1.60;;;7.60;99.90;;;;;;5092674;28;20048;-53
2023/04/12 03:26:42;;;;;;;12.73;2.63;;;7.90;99.90;;;;;;5092633;27;20108;-54
2023/04/12 03:29:08;;;;;;;10.48;2.35;;;8.20;99.90;;;;;;5093492;27;20032;-52
2023/04/12 03:31:35;;;;;;;8.00;1.90;;;7.70;99.90;;;;;;5092068;28;20040;-53
2023/04/12 03:34:01;;;;;;;8.00;2.55;;;7.60;99.90;;;;;;5091459;28;20151;-51
2023/04/12 03:36:28;;;;;;;4.68;1.70;;;7.60;99.90;;;;;;5074282;28;20043;-51
2023/04/12 03:38:54;;;;;;;8.07;2.05;;;7.70;99.90;;;;;;5093004;28;20421;-54
2023/04/12 03:41:22;;;;;;;4.10;1.90;;;7.60;99.90;;;;;;5092226;28;20051;-54
2023/04/12 03:43:48;;;;;;;7.75;2.50;;;7.60;99.90;;;;;;5092633;28;20047;-53
2023/04/12 03:46:15;;;;;;;7.20;2.08;;;7.40;99.90;;;;;;5093903;28;20043;-55
2023/04/12 03:48:41;;;;;;;9.48;1.90;;;7.60;99.90;;;;;;5077761;28;20563;-55
2023/04/12 03:51:10;;;;;;;6.03;1.90;;;7.70;99.90;;;;;;5078373;28;20051;-55
2023/04/12 03:53:37;;;;;;;7.53;1.80;;;7.60;99.90;;;;;;5079121;28;20517;-55
2023/04/12 03:56:03;;;;;;;7.57;2.25;;;7.40;99.90;;;;;;5078611;28;20416;-53
2023/04/12 03:58:29;;;;;;;5.38;1.45;;;7.60;99.90;;;;;;5080347;28;20674;-54
2023/04/12 04:00:56;;;;;;;6.97;1.80;;;7.50;99.90;;;;;;5079248;28;20672;-53
2023/04/12 04:03:25;;;;;;;7.78;1.70;;;7.50;99.90;;;;;;5078353;28;20059;-53
2023/04/12 04:05:51;;;;;;;7.45;1.90;;;7.50;99.90;;;;;;5078479;28;20792;-54
2023/04/12 04:08:17;;;;;;;9.68;1.73;;;7.40;99.90;;;;;;5079390;28;20436;-53
2023/04/12 04:10:44;;;;;;;6.72;2.30;;;7.60;99.90;;;;;;5080324;27;20432;-53
2023/04/12 04:13:10;;;;;;;9.30;2.00;;;7.30;99.90;;;;;;5080594;28;20052;-53
2023/04/12 04:15:35;;;;;;;9.10;2.15;;;7.50;99.90;;;;;;5079290;28;20094;-54
2023/04/12 04:18:01;;;;;;;7.60;2.28;;;7.40;99.90;;;;;;5078805;28;20036;-54
2023/04/12 04:20:27;;;;;;;11.90;2.00;;;7.40;99.90;;;;;;5080396;28;20492;-52
2023/04/12 04:22:53;;;;;;;7.63;2.40;;;7.70;99.90;;;;;;5080815;28;20066;-51
2023/04/12 04:25:19;;;;;;;7.47;2.10;;;7.50;99.90;;;;;;5079352;28;20067;-54
2023/04/12 04:27:44;;;;;;;8.02;2.28;;;7.50;99.90;;;;;;5078009;28;20042;-53
2023/04/12 04:30:17;;;;;;;10.45;2.70;;;7.40;99.90;;;;;;5078700;28;20234;-54
2023/04/12 04:32:43;;;;;;;14.18;2.80;;;7.40;99.90;;;;;;5079562;28;20424;-52
2023/04/12 04:35:09;;;;;;;9.57;3.05;;;7.40;99.90;;;;;;5080245;28;20036;-53
2023/04/12 04:37:35;;;;;;;8.43;3.00;;;7.20;99.90;;;;;;5079714;28;20040;-53
2023/04/12 04:40:07;;;;;;;10.27;3.10;;;7.30;99.90;;;;;;5078773;28;20043;-53
2023/04/12 04:42:33;;;;;;;10.48;3.50;;;7.30;99.90;;;;;;5079801;28;20035;-53
2023/04/12 04:45:01;;;;;;;10.00;3.40;;;7.40;99.90;;;;;;5078357;28;20051;-54
2023/04/12 04:47:29;;;;;;;11.18;3.85;;;7.30;99.90;;;;;;5077911;28;20048;-50
2023/04/12 04:49:56;;;;;;;8.10;3.45;;;7.20;99.90;;;;;;5095778;27;20219;-53
2023/04/12 04:52:22;;;;;;;10.50;3.90;;;7.30;99.90;;;;;;5101986;27;20206;-53
2023/04/12 04:54:48;;;;;;;11.13;4.65;;;7.20;99.90;;;;;;5078837;27;20206;-52
2023/04/12 04:57:14;;;;;;;12.45;4.60;;;7.10;99.90;;;;;;5098006;27;20135;-53
2023/04/12 04:59:40;;;;;;;13.18;4.15;;;7.10;99.90;;;;;;5095885;27;20079;-53
2023/04/12 05:02:06;;;;;;;10.38;4.53;;;7.20;99.90;;;;;;5095643;27;20039;-52
2023/04/12 05:04:32;;;;;;;10.18;4.30;;;7.20;99.90;;;;;;5094718;27;20036;-52
2023/04/12 05:06:57;;;;;;;11.75;4.75;;;7.30;99.90;;;;;;5094296;27;20048;-54
2023/04/12 05:09:23;;;;;;;9.05;4.45;;;7.30;99.90;;;;;;5096220;27;20082;-52
2023/04/12 05:11:49;;;;;;;15.70;4.97;;;7.20;99.90;;;;;;5095738;27;20123;-54
2023/04/12 05:14:15;;;;;;;14.48;5.65;;;7.10;99.90;;;;;;5094727;27;20058;-53
2023/04/12 05:16:41;;;;;;;14.10;4.97;;;7.10;99.90;;;;;;5094589;27;20526;-54
2023/04/12 05:19:07;;;;;;;12.00;5.30;;;7.00;99.90;;;;;;5076561;28;20046;-53
2023/04/12 05:21:33;;;;;;;13.73;4.93;;;7.10;99.90;;;;;;5095785;27;20044;-51
2023/04/12 05:23:59;;;;;;;14.88;5.70;;;7.10;99.90;;;;;;5092955;27;20035;-54
2023/04/12 05:26:24;;;;;;;14.02;5.30;;;7.10;99.90;;;;;;5094490;27;20039;-52
2023/04/12 05:28:50;;;;;;;14.88;5.32;;;7.10;99.90;;;;;;5095305;28;20044;-52
2023/04/12 05:31:17;;;;;;;10.50;4.07;;;7.20;99.90;;;;;;5094860;27;20039;-54
2023/04/12 05:33:43;;;;;;;7.28;3.92;;;7.00;99.90;;;;;;5094006;27;20559;-54
2023/04/12 05:36:10;;;;;;;9.63;4.00;;;7.00;99.90;;;;;;5059917;28;20042;-55
2023/04/12 05:38:36;;;;;;;11.45;4.43;;;7.20;99.90;;;;;;5077634;28;20047;-54
2023/04/12 05:41:04;;;;;;;10.10;3.88;;;7.10;99.90;;;;;;5059178;28;20063;-54
2023/04/12 05:43:31;;;;;;;11.10;4.00;;;7.10;99.90;;;;;;5093642;27;20058;-54
2023/04/12 05:45:58;;;;;;;9.52;3.72;;;7.00;99.90;;;;;;5093635;27;20043;-54
2023/04/12 05:48:23;;;;;;;11.85;4.82;;;7.00;99.90;;;;;;5095362;27;21605;-55
2023/04/12 05:50:51;;;;;;;11.55;3.70;;;7.10;99.90;;;;;;5095877;27;20039;-50
2023/04/12 05:53:17;;;;;;;10.75;4.25;;;7.00;99.90;;;;;;5096098;27;20103;-53
2023/04/12 05:55:43;;;;;;;11.30;4.20;;;7.00;99.90;;;;;;5076138;27;20062;-52
2023/04/12 05:58:09;;;;;;;7.07;3.47;;;7.00;99.90;;;;;;5094290;27;20070;-52
2023/04/12 06:00:35;;;;;;;9.60;3.55;;;7.20;99.90;;;;;;5095008;27;20504;-52
2023/04/12 06:03:01;;;;;;;14.93;4.32;;;7.20;99.90;;;;;;5094097;27;20039;-51
2023/04/12 06:05:27;;;;;;;8.43;3.70;;;7.00;99.90;;;;;;5093632;27;20036;-53
2023/04/12 06:07:52;;;;;;;14.30;4.38;;;7.00;99.90;;;;;;5074953;28;20039;-51
2023/04/12 06:10:18;;;;;;;11.98;4.07;;;7.10;99.90;;;;;;5093909;27;20086;-53
2023/04/12 06:12:44;;;;;;;8.15;3.58;;;7.00;99.90;;;;;;5093167;28;20046;-53
2023/04/12 06:15:10;;;;;;;9.25;4.28;;;7.10;99.90;;;;;;5094275;27;20047;-52
2023/04/12 06:17:36;;;;;;;9.48;3.47;;;7.10;99.90;;;;;;5094015;27;20357;-53
2023/04/12 06:20:08;;;;;;;8.10;4.00;;;8.10;99.90;;;;;;5075311;28;20062;-51
2023/04/12 06:22:35;;;;;;;8.38;3.80;;;7.10;99.90;;;;;;5095193;27;20163;-54
2023/04/12 06:25:02;;;;;;;10.52;3.72;;;7.10;99.90;;;;;;5093130;28;20426;-52
2023/04/12 06:27:28;;;;;;;8.50;3.67;;;7.00;99.90;;;;;;5093697;28;21326;-54
2023/04/12 06:29:54;;;;;;;13.85;4.05;;;7.10;99.90;;;;;;5094370;28;20044;-54
2023/04/12 06:32:20;;;;;;;7.57;3.75;;;7.20;99.90;;;;;;5093489;27;20507;-54
2023/04/12 06:34:46;;;;;;;10.88;4.30;;;7.10;99.90;;;;;;5074149;28;20038;-53
2023/04/12 06:37:11;;;;;;;9.50;3.70;;;7.10;99.90;;;;;;5076122;28;20075;-53
2023/04/12 06:39:37;;;;;;;10.27;4.57;;;7.10;99.90;;;;;;5093582;27;20059;-53
2023/04/12 06:42:03;;;;;;;11.02;3.97;;;7.10;99.90;;;;;;5094010;27;20142;-53
2023/04/12 06:44:29;;;;;;;9.15;3.92;;;7.10;99.90;;;;;;5093279;28;21971;-53
2023/04/12 06:46:54;;;;;;;8.98;4.25;;;7.00;99.90;;;;;;5093664;28;20039;-53
2023/04/12 06:49:20;;;;;;;11.10;4.20;;;7.10;99.90;;;;;;5091636;27;20051;-52
2023/04/12 06:51:46;;;;;;;10.95;4.20;;;7.00;99.90;;;;;;5094528;27;20039;-53
2023/04/12 06:54:12;;;;;;;8.85;3.97;;;7.20;99.90;;;;;;5093824;27;20035;-53
2023/04/12 06:56:38;;;;;;;8.52;3.70;;;7.10;99.90;;;;;;5075778;28;20066;-51
2023/04/12 06:59:04;;;;;;;6.70;3.90;;;7.00;99.90;;;;;;5093742;27;20036;-54
2023/04/12 07:01:30;;;;;;;10.98;5.03;;;7.20;99.90;;;;;;5092268;27;20050;-53
2023/04/12 07:03:56;;;;;;;8.98;4.40;;;7.20;99.90;;;;;;5075685;28;21163;-51
2023/04/12 07:06:22;;;;;;;8.25;3.88;;;7.10;99.90;;;;;;5093812;27;20127;-52
2023/04/12 07:08:48;;;;;;;8.95;4.28;;;7.10;99.90;;;;;;5092869;27;20031;-54
2023/04/12 07:11:14;;;;;;;9.02;4.30;;;7.00;99.90;;;;;;5093299;27;20732;-53
2023/04/12 07:13:40;;;;;;;9.85;4.30;;;7.00;99.90;;;;;;5075567;28;20136;-53
2023/04/12 07:16:06;;;;;;;8.70;4.13;;;7.10;99.90;;;;;;5092118;28;20043;-53
2023/04/12 07:18:32;;;;;;;11.65;4.20;;;7.10;99.90;;;;;;5073152;28;20676;-53
2023/04/12 07:20:58;;;;;;;7.22;3.95;;;7.00;99.90;;;;;;5094185;27;20046;-51
2023/04/12 07:23:24;;;;;;;11.45;4.47;;;7.20;99.90;;;;;;5075342;28;20051;-54
2023/04/12 07:25:50;;;;;;;7.63;4.00;;;7.10;99.90;;;;;;5092281;28;20039;-52
2023/04/12 07:28:17;;;;;;;9.95;4.13;;;7.20;99.90;;;;;;5092195;27;20180;-53
2023/04/12 07:30:43;;;;;;;7.55;3.95;;;7.10;99.90;;;;;;5074921;28;20039;-53
2023/04/12 07:33:09;;;;;;;9.20;4.10;;;7.20;99.90;;;;;;5093879;28;20051;-57
2023/04/12 07:35:35;;;;;;;8.43;4.20;;;7.20;99.90;;;;;;5092744;27;20055;-53
2023/04/12 07:38:01;;;;;;;7.90;4.03;;;7.40;99.90;;;;;;5092137;28;20035;-54
2023/04/12 07:40:26;;;;;;;10.57;4.32;;;7.20;99.90;;;;;;5094433;28;20522;-53
2023/04/12 07:42:52;;;;;;;7.43;4.45;;;7.30;99.90;;;;;;5093025;27;20383;-54
2023/04/12 07:45:19;;;;;;;8.25;4.40;;;8.20;99.90;;;;;;5074024;28;20381;-54
2023/04/12 07:47:45;;;;;;;8.77;4.70;;;7.30;99.90;;;;;;5074605;28;20439;-54
2023/04/12 07:50:12;;;;;;;9.27;4.90;;;7.50;99.90;;;;;;5092745;28;20472;-53
2023/04/12 07:52:37;;;;;;;9.10;4.78;;;7.30;99.90;;;;;;5094530;28;20390;-54
2023/04/12 07:55:03;;;;;;;9.23;4.90;;;7.30;99.90;;;;;;5092248;28;20089;-52
2023/04/12 07:57:30;;;;;;;8.90;5.00;;;7.30;99.90;;;;;;5092501;28;20139;-53
2023/04/12 07:59:56;;;;;;;8.15;4.80;;;7.30;99.90;;;;;;5093704;28;20052;-53
2023/04/12 08:02:23;;;;;;;6.50;4.18;;;7.60;99.90;;;;;;5093387;28;20104;-54
2023/04/12 08:04:50;;;;;;;6.35;4.18;;;7.30;99.90;;;;;;5092016;28;20101;-53
2023/04/12 08:07:16;;;;;;;8.18;4.50;;;7.40;99.90;;;;;;5093044;28;20093;-54
2023/04/12 08:09:42;;;;;;;10.25;4.32;;;9.00;99.90;;;;;;5093167;28;20537;-53
2023/04/12 08:12:07;;;;;;;7.63;4.40;;;7.50;99.90;;;;;;5094142;28;20039;-54
2023/04/12 08:14:33;;;;;;;6.90;4.55;;;8.70;99.90;;;;;;5094341;28;20047;-53
2023/04/12 08:16:59;;;;;;;5.50;4.25;;;7.70;99.90;;;;;;5075004;28;20055;-55
2023/04/12 08:19:25;;;;;;;6.57;4.47;;;7.80;99.90;;;;;;5094800;28;20902;-54
2023/04/12 08:21:51;;;;;;;8.27;5.32;;;7.60;99.90;;;;;;5095206;28;20096;-52
2023/04/12 08:24:17;;;;;;;6.97;5.05;;;7.60;99.90;;;;;;5094317;28;20047;-53
2023/04/12 08:26:42;;;;;;;7.90;5.22;;;7.70;99.90;;;;;;5074511;28;20043;-54
2023/04/12 08:29:08;;;;;;;8.63;6.32;;;8.40;99.90;;;;;;5075433;28;20130;-54
2023/04/12 08:31:34;;;;;;;7.28;4.78;;;7.70;99.90;;;;;;5094807;28;20062;-54
2023/04/12 08:34:00;;;;;;;8.45;5.80;;;7.90;99.90;;;;;;5093913;28;20043;-53
2023/04/12 08:36:26;;;;;;;8.55;5.90;;;7.70;99.90;;;;;;5096611;27;20035;-55
2023/04/12 08:38:54;;;;;;;7.35;5.47;;;8.00;99.90;;;;;;5077588;27;20168;-54
2023/04/12 08:41:20;;;;;;;10.07;5.90;;;7.90;99.90;;;;;;5078626;28;20089;-54
2023/04/12 08:43:47;;;;;;;7.88;6.13;;;7.90;99.90;;;;;;5096497;27;20233;-54
2023/04/12 08:46:16;;;;;;;6.72;5.20;;;7.90;99.90;;;;;;5077248;28;20032;-55
2023/04/12 08:48:47;;;;;;;8.60;5.78;;;8.10;99.90;;;;;;5076894;28;20060;-53
2023/04/12 08:51:15;;;;;;;7.60;5.75;;;7.90;99.90;;;;;;5095225;27;20670;-54
2023/04/12 08:53:41;;;;;;;7.43;5.80;;;8.10;99.90;;;;;;5097208;27;20125;-54
2023/04/12 08:56:11;;;;;;;8.43;6.32;;;7.90;99.90;;;;;;5078944;28;20039;-54
2023/04/12 08:58:40;;;;;;;9.82;7.63;;;8.10;99.90;;;;;;5097454;27;20070;-55
2023/04/12 09:01:13;;;;;;;9.32;7.68;;;8.00;99.90;;;;;;5096573;27;20039;-55
2023/04/12 09:03:40;;;;;;;8.60;7.03;;;8.10;99.90;;;;;;5095378;27;20051;-55
2023/04/12 09:06:06;;;;;;;9.30;7.60;;;8.20;99.90;;;;;;5096907;27;20031;-55
2023/04/12 09:08:32;;;;;;;7.85;6.63;;;8.30;99.90;;;;;;5094772;27;20322;-55
2023/04/12 09:10:59;;;;;;;9.55;5.70;;;8.20;99.90;;;;;;5094700;27;20047;-55
2023/04/12 09:13:35;;;;;;;8.80;6.68;;;8.30;99.90;;;;;;5095604;27;20693;-55
2023/04/12 09:16:02;;;;;;;9.82;8.05;;;8.40;99.90;;;;;;5095396;27;20039;-55
2023/04/12 09:18:28;;;;;;;12.05;8.65;;;8.30;99.90;;;;;;5076690;28;20380;-54
2023/04/12 09:21:10;;;;;;;10.75;7.78;;;8.70;99.90;;;;;;5096085;27;20048;-54
2023/04/12 09:23:36;;;;;;;9.88;6.35;;;8.90;99.90;;;;;;5076001;28;20036;-55
2023/04/12 09:26:02;;;;;;;9.13;6.97;;;9.00;99.90;;;;;;5094751;27;20035;-56
2023/04/12 09:28:29;;;;;;;8.93;6.03;;;9.10;99.90;;;;;;5095643;27;20158;-56
2023/04/12 09:30:57;;;;;;;7.40;5.47;;;9.30;99.90;;;;;;5096602;27;20036;-54
2023/04/12 09:33:35;;;;;;;8.85;6.05;;;9.30;99.90;;;;;;5074670;28;20035;-55
2023/04/12 09:36:08;;;;;;;7.20;5.22;;;9.40;99.90;;;;;;5095046;27;20682;-56
2023/04/12 09:38:38;;;;;;;9.63;5.28;;;9.40;99.90;;;;;;5095029;27;20460;-56
2023/04/12 09:41:24;;;;;;;8.75;5.53;;;9.50;99.90;;;;;;5096277;27;20043;-56
2023/04/12 09:43:50;;;;;;;9.65;5.80;;;9.40;99.90;;;;;;5077847;27;20109;-56
2023/04/12 09:46:16;;;;;;;9.18;5.82;;;9.70;99.90;;;;;;5094279;27;20139;-56
2023/04/12 09:48:51;;;;;;;9.48;6.00;;;9.80;99.90;;;;;;5094621;27;20504;-57
2023/04/12 09:51:32;;;;;;;8.25;6.10;;;9.90;99.90;;;;;;5094700;27;20059;-56
2023/04/12 09:54:00;;;;;;;10.52;5.20;;;10.30;99.90;;;;;;5095684;27;20071;-56
2023/04/12 09:56:31;;;;;;;8.40;4.03;;;10.90;99.90;;;;;;5093893;27;20857;-55
2023/04/12 09:59:05;;;;;;;8.23;3.60;;;11.20;99.90;;;;;;5094402;27;20047;-56
2023/04/12 10:01:38;;;;;;;7.47;2.97;;;11.00;99.90;;;;;;5075554;28;20293;-56
2023/04/12 10:04:08;;;;;;;7.45;3.65;;;11.20;99.90;;;;;;5092818;27;20043;-56
2023/04/12 10:06:35;;;;;;;9.30;3.15;;;11.30;99.90;;;;;;5093624;28;20039;-55
2023/04/12 10:09:05;;;;;;;9.07;3.30;;;11.30;99.90;;;;;;5074315;27;20058;-56
2023/04/12 10:11:32;;;;;;;10.38;3.05;;;11.80;99.90;;;;;;5093625;27;20162;-56
2023/04/12 10:14:01;;;;;;;11.75;3.85;;;12.00;99.90;;;;;;5093578;27;20051;-56
2023/04/12 10:16:26;;;;;;;7.07;3.20;;;12.00;99.90;;;;;;5094595;27;20774;-56
2023/04/12 10:18:54;;;;;;;8.88;3.08;;;11.90;99.90;;;;;;5092993;27;20051;-56
2023/04/12 10:21:20;;;;;;;9.02;3.08;;;11.70;99.90;;;;;;5093810;27;20040;-55
2023/04/12 10:23:46;;;;;;;11.95;2.65;;;12.00;99.90;;;;;;5093784;27;20044;-55
2023/04/12 10:26:15;;;;;;;12.23;2.60;;;12.30;99.90;;;;;;5093730;27;20192;-55
2023/04/12 10:28:46;;;;;;;11.18;2.45;;;12.60;99.90;;;;;;5094766;27;20739;-53
2023/04/12 10:31:29;;;;;;;10.63;2.45;;;14.50;99.90;;;;;;5075856;27;20067;-56
2023/04/12 10:33:55;;;;;;;10.23;2.60;;;12.90;99.90;;;;;;5092184;27;20035;-54
2023/04/12 10:37:04;;;;;;;13.52;2.88;;;13.00;99.90;;;;;;5092848;27;20042;-56
2023/04/12 10:39:35;;;;;;;12.95;2.35;;;13.10;99.90;;;;;;5082246;27;20654;-53
2023/04/12 10:42:26;;;;;;;12.35;2.58;;;12.90;99.90;;;;;;5092280;28;20042;-53
2023/04/12 10:45:15;;;;;;;12.27;2.67;;;12.90;99.90;;;;;;5092417;27;20396;-55
2023/04/12 10:47:47;;;;;;;10.65;2.15;;;13.30;99.90;;;;;;5092357;27;20040;-54
2023/04/12 10:50:23;;;;;;;14.25;3.38;;;13.70;99.90;;;;;;5092083;28;20101;-55
2023/04/12 10:53:14;;;;;;;9.98;2.08;;;13.70;99.90;;;;;;5094317;27;20120;-53
2023/04/12 10:55:44;;;;;;;12.80;2.13;;;13.50;99.90;;;;;;5094182;28;20103;-52
2023/04/12 10:58:10;;;;;;;15.57;2.67;;;13.60;99.90;;;;;;5058038;28;20407;-54
2023/04/12 11:00:58;;;;;;;12.60;2.10;;;13.60;99.90;;;;;;5094161;28;20062;-54
2023/04/12 11:03:27;;;;;;;11.35;2.28;;;13.80;99.90;;;;;;5093672;28;20740;-54
2023/04/12 11:06:02;;;;;;;14.85;2.25;;;14.30;99.90;;;;;;5093413;28;20473;-53
2023/04/12 11:08:28;;;;;;;14.55;2.90;;;14.60;99.90;;;;;;5076477;28;20119;-54
2023/04/12 11:11:19;;;;;;;11.07;2.40;;;14.40;99.90;;;;;;5094173;27;20039;-51
2023/04/12 11:13:45;;;;;;;15.45;2.47;;;14.70;99.90;;;;;;5094889;28;20044;-54
2023/04/12 11:16:14;;;;;;;16.85;2.25;;;14.70;99.90;;;;;;5093157;28;20047;-55
2023/04/12 11:18:40;;;;;;;14.73;2.45;;;14.70;99.90;;;;;;5092835;28;20407;-51
2023/04/12 11:21:07;;;;;;;17.90;2.78;;;14.70;99.90;;;;;;5092880;28;20097;-54
2023/04/12 11:23:35;;;;;;;16.85;2.70;;;14.50;99.90;;;;;;5095020;27;20125;-54
2023/04/12 11:26:02;;;;;;;15.82;2.63;;;14.30;99.90;;;;;;5092568;27;20047;-55
2023/04/12 11:28:28;;;;;;;14.63;2.75;;;14.20;99.90;;;;;;5091482;27;20043;-53
2023/04/12 11:30:55;;;;;;;13.85;2.80;;;14.00;99.90;;;;;;5091555;28;20039;-53
2023/04/12 11:33:34;;;;;;;13.82;2.55;;;14.00;99.90;;;;;;5092844;28;20047;-53
2023/04/12 11:36:04;;;;;;;12.05;2.80;;;13.70;99.90;;;;;;5091718;27;20081;-54
2023/04/12 11:38:30;;;;;;;12.98;2.95;;;13.50;99.90;;;;;;5091797;27;20054;-53
2023/04/12 11:40:56;;;;;;;14.57;2.47;;;13.50;99.90;;;;;;5093019;28;20138;-54
2023/04/12 11:43:22;;;;;;;13.68;2.50;;;13.40;99.90;;;;;;5092985;27;20106;-51
2023/04/12 11:45:48;;;;;;;13.02;2.45;;;13.20;99.90;;;;;;5092551;28;20455;-54
2023/04/12 11:48:14;;;;;;;12.95;2.45;;;13.20;99.90;;;;;;5090636;28;20051;-53
2023/04/12 11:50:40;;;;;;;9.20;1.98;;;13.00;99.90;;;;;;5093340;28;20446;-53
2023/04/12 11:53:12;;;;;;;13.75;2.92;;;13.00;99.90;;;;;;5094380;28;20572;-53
2023/04/12 11:55:38;;;;;;;;;;;12.90;99.90;;;;;;5074415;28;20055;-54
2023/04/12 11:58:04;;;;;;;13.20;2.45;;;12.80;99.90;;;;;;5092658;28;19930;-52
2023/04/12 12:00:30;;;;;;;13.40;2.40;;;12.80;99.90;;;;;;5092142;28;20057;-52
2023/04/12 12:02:56;;;;;;;15.25;3.35;;;12.60;99.90;;;;;;5092497;28;20047;-53
2023/04/12 12:05:22;;;;;;;16.05;2.47;;;12.90;99.90;;;;;;5093011;28;20044;-53
2023/04/12 12:07:48;;;;;;;13.52;2.53;;;12.80;99.90;;;;;;5094938;28;20040;-52
2023/04/12 12:10:16;;;;;;;16.42;3.00;;;12.90;99.90;;;;;;5077713;28;20546;-52
2023/04/12 12:12:46;;;;;;;15.85;2.67;;;13.00;99.90;;;;;;5096593;27;20040;-52
2023/04/12 12:15:14;;;;;;;22.92;3.22;;;12.80;99.90;;;;;;5097223;27;20062;-53
2023/04/12 12:17:40;;;;;;;18.17;2.60;;;13.00;99.90;;;;;;5096722;27;20092;-53
2023/04/12 12:20:06;;;;;;;16.35;2.88;;;13.20;99.90;;;;;;5098260;27;20036;-51
2023/04/12 12:22:33;;;;;;;18.60;3.17;;;12.90;99.90;;;;;;5097028;27;20051;-54
2023/04/12 12:24:59;;;;;;;53.35;5.72;;;12.70;99.90;;;;;;5097237;27;20040;-52
2023/04/12 12:27:36;;;;;;;14.35;2.50;;;12.60;99.90;;;;;;5096269;27;20104;-53
2023/04/12 12:30:05;;;;;;;17.00;2.38;;;12.80;99.90;;;;;;5095692;27;20090;-52
2023/04/12 12:32:33;;;;;;;13.50;2.30;;;12.70;99.90;;;;;;5095733;27;20039;-52
2023/04/12 12:34:59;;;;;;;14.00;2.25;;;12.70;99.90;;;;;;5095122;27;20131;-54
2023/04/12 12:37:29;;;;;;;15.32;2.53;;;12.70;99.90;;;;;;5096914;27;20078;-53
2023/04/12 12:40:15;;;;;;;12.20;2.20;;;12.80;99.90;;;;;;5096145;27;20055;-51
2023/04/12 12:42:45;;;;;;;11.70;2.17;;;12.70;99.90;;;;;;5096094;27;20078;-53
2023/04/12 12:45:12;;;;;;;12.52;2.40;;;12.50;99.90;;;;;;5096036;27;20044;-53
2023/04/12 12:47:48;;;;;;;13.23;2.55;;;12.30;99.90;;;;;;5095339;27;20059;-53
2023/04/12 12:50:18;;;;;;;12.25;2.05;;;12.40;99.90;;;;;;5095941;27;20084;-51
2023/04/12 12:52:48;;;;;;;12.85;1.98;;;12.30;99.90;;;;;;5078461;28;20044;-52
2023/04/12 12:55:14;;;;;;;10.75;2.30;;;11.90;99.90;;;;;;5097097;27;20088;-54